sensor_id;sensor_type;location;lat;lon;timestamp;P1;durP1;ratioP1;P2;durP2;ratioP2
7583;SDS011;3833;41.764;26.204;2023-04-01T00:00:57;6.20;;;3.67;;
7583;SDS011;3833;41.764;26.204;2023-04-01T00:03:28;4.40;;;3.57;;
7583;SDS011;3833;41.764;26.204;2023-04-01T00:05:56;8.40;;;7.73;;
7583;SDS011;3833;41.764;26.204;2023-04-01T00:08:24;10.57;;;9.87;;
7583;SDS011;3833;41.764;26.204;2023-04-01T00:10:51;5.43;;;4.33;;
7583;SDS011;3833;41.764;26.204;2023-04-01T00:13:19;5.33;;;4.83;;
7583;SDS011;3833;41.764;26.204;2023-04-01T00:15:47;7.07;;;4.23;;
7583;SDS011;3833;41.764;26.204;2023-04-01T00:18:14;6.03;;;4.17;;
7583;SDS011;3833;41.764;26.204;2023-04-01T00:20:44;7.97;;;7.47;;
7583;SDS011;3833;41.764;26.204;2023-04-01T00:23:12;8.60;;;8.07;;
7583;SDS011;3833;41.764;26.204;2023-04-01T00:25:39;6.40;;;5.90;;
7583;SDS011;3833;41.764;26.204;2023-04-01T00:28:06;5.33;;;4.70;;
7583;SDS011;3833;41.764;26.204;2023-04-01T00:30:33;8.37;;;5.53;;
7583;SDS011;3833;41.764;26.204;2023-04-01T00:33:02;7.77;;;6.23;;
7583;SDS011;3833;41.764;26.204;2023-04-01T00:35:29;10.60;;;7.90;;
7583;SDS011;3833;41.764;26.204;2023-04-01T00:37:58;7.63;;;7.03;;
7583;SDS011;3833;41.764;26.204;2023-04-01T00:40:27;6.93;;;6.10;;
7583;SDS011;3833;41.764;26.204;2023-04-01T00:42:56;5.97;;;4.40;;
7583;SDS011;3833;41.764;26.204;2023-04-01T00:45:28;7.50;;;4.73;;
7583;SDS011;3833;41.764;26.204;2023-04-01T00:47:58;5.50;;;3.93;;
7583;SDS011;3833;41.764;26.204;2023-04-01T00:50:28;6.00;;;5.50;;
7583;SDS011;3833;41.764;26.204;2023-04-01T00:52:57;9.03;;;8.03;;
7583;SDS011;3833;41.764;26.204;2023-04-01T00:55:26;8.27;;;7.50;;
7583;SDS011;3833;41.764;26.204;2023-04-01T00:57:55;7.80;;;5.90;;
7583;SDS011;3833;41.764;26.204;2023-04-01T01:00:25;5.37;;;4.60;;
7583;SDS011;3833;41.764;26.204;2023-04-01T01:02:52;6.63;;;4.50;;
7583;SDS011;3833;41.764;26.204;2023-04-01T01:05:20;8.73;;;5.90;;
7583;SDS011;3833;41.764;26.204;2023-04-01T01:07:57;6.70;;;6.10;;
7583;SDS011;3833;41.764;26.204;2023-04-01T01:10:32;6.27;;;5.57;;
7583;SDS011;3833;41.764;26.204;2023-04-01T01:13:03;7.70;;;5.67;;
7583;SDS011;3833;41.764;26.204;2023-04-01T01:15:39;7.57;;;5.23;;
7583;SDS011;3833;41.764;26.204;2023-04-01T01:18:14;5.83;;;5.23;;
7583;SDS011;3833;41.764;26.204;2023-04-01T01:20:59;7.23;;;5.10;;
7583;SDS011;3833;41.764;26.204;2023-04-01T01:23:52;8.70;;;8.00;;
7583;SDS011;3833;41.764;26.204;2023-04-01T01:35:24;7.57;;;6.23;;
7583;SDS011;3833;41.764;26.204;2023-04-01T01:37:55;11.57;;;7.60;;
7583;SDS011;3833;41.764;26.204;2023-04-01T01:40:26;9.13;;;8.33;;
7583;SDS011;3833;41.764;26.204;2023-04-01T01:42:56;8.13;;;7.43;;
7583;SDS011;3833;41.764;26.204;2023-04-01T01:45:26;10.00;;;7.73;;
7583;SDS011;3833;41.764;26.204;2023-04-01T01:47:53;7.97;;;6.20;;
7583;SDS011;3833;41.764;26.204;2023-04-01T01:50:24;6.87;;;6.17;;
7583;SDS011;3833;41.764;26.204;2023-04-01T01:53:00;10.67;;;9.67;;
7583;SDS011;3833;41.764;26.204;2023-04-01T01:55:29;9.63;;;8.73;;
7583;SDS011;3833;41.764;26.204;2023-04-01T01:57:57;10.73;;;8.90;;
7583;SDS011;3833;41.764;26.204;2023-04-01T02:00:28;7.43;;;5.97;;
7583;SDS011;3833;41.764;26.204;2023-04-01T02:02:55;8.13;;;7.13;;
7583;SDS011;3833;41.764;26.204;2023-04-01T02:05:25;7.17;;;6.23;;
7583;SDS011;3833;41.764;26.204;2023-04-01T02:07:56;10.67;;;9.73;;
7583;SDS011;3833;41.764;26.204;2023-04-01T02:10:27;10.30;;;8.50;;
7583;SDS011;3833;41.764;26.204;2023-04-01T02:12:58;7.83;;;7.17;;
7583;SDS011;3833;41.764;26.204;2023-04-01T02:15:30;7.27;;;6.57;;
7583;SDS011;3833;41.764;26.204;2023-04-01T02:18:04;7.17;;;5.93;;
7583;SDS011;3833;41.764;26.204;2023-04-01T02:20:33;6.93;;;6.23;;
7583;SDS011;3833;41.764;26.204;2023-04-01T02:23:03;8.60;;;6.17;;
7583;SDS011;3833;41.764;26.204;2023-04-01T02:25:34;7.67;;;6.93;;
7583;SDS011;3833;41.764;26.204;2023-04-01T02:28:04;9.03;;;8.20;;
7583;SDS011;3833;41.764;26.204;2023-04-01T02:30:33;8.00;;;6.90;;
7583;SDS011;3833;41.764;26.204;2023-04-01T02:33:02;7.67;;;7.00;;
7583;SDS011;3833;41.764;26.204;2023-04-01T02:35:34;6.13;;;5.33;;
7583;SDS011;3833;41.764;26.204;2023-04-01T02:38:02;7.23;;;5.13;;
7583;SDS011;3833;41.764;26.204;2023-04-01T02:40:40;5.43;;;4.93;;
7583;SDS011;3833;41.764;26.204;2023-04-01T02:43:08;8.80;;;8.10;;
7583;SDS011;3833;41.764;26.204;2023-04-01T02:45:36;7.73;;;7.03;;
7583;SDS011;3833;41.764;26.204;2023-04-01T02:48:03;6.40;;;5.67;;
7583;SDS011;3833;41.764;26.204;2023-04-01T02:50:30;6.90;;;6.30;;
7583;SDS011;3833;41.764;26.204;2023-04-01T02:52:59;7.03;;;5.37;;
7583;SDS011;3833;41.764;26.204;2023-04-01T02:55:25;6.23;;;5.63;;
7583;SDS011;3833;41.764;26.204;2023-04-01T02:57:52;8.20;;;7.50;;
7583;SDS011;3833;41.764;26.204;2023-04-01T03:00:19;8.13;;;7.20;;
7583;SDS011;3833;41.764;26.204;2023-04-01T03:02:46;6.60;;;6.10;;
7583;SDS011;3833;41.764;26.204;2023-04-01T03:05:13;5.40;;;4.90;;
7583;SDS011;3833;41.764;26.204;2023-04-01T03:07:40;6.00;;;4.77;;
7583;SDS011;3833;41.764;26.204;2023-04-01T03:10:09;5.10;;;4.60;;
7583;SDS011;3833;41.764;26.204;2023-04-01T03:12:36;7.70;;;7.13;;
7583;SDS011;3833;41.764;26.204;2023-04-01T03:15:03;8.90;;;8.30;;
7583;SDS011;3833;41.764;26.204;2023-04-01T03:17:31;7.10;;;6.37;;
7583;SDS011;3833;41.764;26.204;2023-04-01T03:19:58;7.10;;;6.50;;
7583;SDS011;3833;41.764;26.204;2023-04-01T03:22:25;5.37;;;4.60;;
7583;SDS011;3833;41.764;26.204;2023-04-01T03:24:52;6.27;;;5.40;;
7583;SDS011;3833;41.764;26.204;2023-04-01T03:27:20;5.70;;;4.60;;
7583;SDS011;3833;41.764;26.204;2023-04-01T03:29:47;8.10;;;7.50;;
7583;SDS011;3833;41.764;26.204;2023-04-01T03:32:14;7.70;;;7.10;;
7583;SDS011;3833;41.764;26.204;2023-04-01T03:34:41;6.73;;;6.23;;
7583;SDS011;3833;41.764;26.204;2023-04-01T03:37:08;5.87;;;5.30;;
7583;SDS011;3833;41.764;26.204;2023-04-01T03:39:35;5.00;;;4.47;;
7583;SDS011;3833;41.764;26.204;2023-04-01T03:42:01;6.40;;;5.90;;
7583;SDS011;3833;41.764;26.204;2023-04-01T03:44:31;6.60;;;5.30;;
7583;SDS011;3833;41.764;26.204;2023-04-01T03:46:59;5.93;;;5.37;;
7583;SDS011;3833;41.764;26.204;2023-04-01T03:49:26;6.07;;;5.43;;
7583;SDS011;3833;41.764;26.204;2023-04-01T03:51:53;5.17;;;4.67;;
7583;SDS011;3833;41.764;26.204;2023-04-01T03:54:20;6.67;;;4.70;;
7583;SDS011;3833;41.764;26.204;2023-04-01T03:56:47;6.07;;;5.30;;
7583;SDS011;3833;41.764;26.204;2023-04-01T03:59:14;8.03;;;5.37;;
7583;SDS011;3833;41.764;26.204;2023-04-01T04:01:43;6.27;;;5.67;;
7583;SDS011;3833;41.764;26.204;2023-04-01T04:04:10;8.17;;;6.30;;
7583;SDS011;3833;41.764;26.204;2023-04-01T04:06:38;7.27;;;6.37;;
7583;SDS011;3833;41.764;26.204;2023-04-01T04:09:05;9.57;;;8.20;;
7583;SDS011;3833;41.764;26.204;2023-04-01T04:11:32;7.17;;;6.50;;
7583;SDS011;3833;41.764;26.204;2023-04-01T04:13:59;7.10;;;6.40;;
7583;SDS011;3833;41.764;26.204;2023-04-01T04:16:26;7.47;;;6.77;;
7583;SDS011;3833;41.764;26.204;2023-04-01T04:18:56;10.57;;;6.23;;
7583;SDS011;3833;41.764;26.204;2023-04-01T04:21:23;7.00;;;5.80;;
7583;SDS011;3833;41.764;26.204;2023-04-01T04:23:50;7.27;;;6.53;;
7583;SDS011;3833;41.764;26.204;2023-04-01T04:26:17;7.33;;;6.63;;
7583;SDS011;3833;41.764;26.204;2023-04-01T04:28:44;6.63;;;6.03;;
7583;SDS011;3833;41.764;26.204;2023-04-01T04:31:11;7.90;;;6.10;;
7583;SDS011;3833;41.764;26.204;2023-04-01T04:33:44;6.83;;;6.17;;
7583;SDS011;3833;41.764;26.204;2023-04-01T04:36:12;6.60;;;5.90;;
7583;SDS011;3833;41.764;26.204;2023-04-01T04:38:39;6.20;;;5.60;;
7583;SDS011;3833;41.764;26.204;2023-04-01T04:41:08;5.73;;;5.13;;
7583;SDS011;3833;41.764;26.204;2023-04-01T04:43:36;5.40;;;4.90;;
7583;SDS011;3833;41.764;26.204;2023-04-01T04:46:04;6.40;;;5.50;;
7583;SDS011;3833;41.764;26.204;2023-04-01T04:48:31;7.03;;;6.43;;
7583;SDS011;3833;41.764;26.204;2023-04-01T04:51:00;11.00;;;6.17;;
7583;SDS011;3833;41.764;26.204;2023-04-01T04:53:29;6.83;;;6.13;;
7583;SDS011;3833;41.764;26.204;2023-04-01T04:55:56;8.07;;;6.13;;
7583;SDS011;3833;41.764;26.204;2023-04-01T04:58:23;5.47;;;4.77;;
7583;SDS011;3833;41.764;26.204;2023-04-01T05:00:50;8.70;;;5.77;;
7583;SDS011;3833;41.764;26.204;2023-04-01T05:03:18;7.13;;;6.43;;
7583;SDS011;3833;41.764;26.204;2023-04-01T05:05:48;8.37;;;7.53;;
7583;SDS011;3833;41.764;26.204;2023-04-01T05:08:16;9.53;;;7.40;;
7583;SDS011;3833;41.764;26.204;2023-04-01T05:10:44;7.43;;;6.47;;
7583;SDS011;3833;41.764;26.204;2023-04-01T05:13:11;9.17;;;6.10;;
7583;SDS011;3833;41.764;26.204;2023-04-01T05:15:38;6.40;;;5.80;;
7583;SDS011;3833;41.764;26.204;2023-04-01T05:18:05;7.70;;;6.90;;
7583;SDS011;3833;41.764;26.204;2023-04-01T05:20:32;7.40;;;6.80;;
7583;SDS011;3833;41.764;26.204;2023-04-01T05:22:59;7.73;;;7.03;;
7583;SDS011;3833;41.764;26.204;2023-04-01T05:25:27;10.00;;;9.03;;
7583;SDS011;3833;41.764;26.204;2023-04-01T05:27:56;5.47;;;4.97;;
7583;SDS011;3833;41.764;26.204;2023-04-01T05:30:23;6.40;;;5.70;;
7583;SDS011;3833;41.764;26.204;2023-04-01T05:32:50;5.87;;;5.30;;
7583;SDS011;3833;41.764;26.204;2023-04-01T05:35:20;12.33;;;11.43;;
7583;SDS011;3833;41.764;26.204;2023-04-01T05:37:47;11.20;;;10.50;;
7583;SDS011;3833;41.764;26.204;2023-04-01T05:40:14;8.60;;;7.87;;
7583;SDS011;3833;41.764;26.204;2023-04-01T05:42:41;9.00;;;8.20;;
7583;SDS011;3833;41.764;26.204;2023-04-01T05:45:10;8.53;;;6.80;;
7583;SDS011;3833;41.764;26.204;2023-04-01T05:47:40;8.77;;;6.17;;
7583;SDS011;3833;41.764;26.204;2023-04-01T05:50:10;12.23;;;11.33;;
7583;SDS011;3833;41.764;26.204;2023-04-01T05:52:37;13.03;;;12.23;;
7583;SDS011;3833;41.764;26.204;2023-04-01T05:55:04;12.03;;;10.93;;
7583;SDS011;3833;41.764;26.204;2023-04-01T05:57:32;11.43;;;10.60;;
7583;SDS011;3833;41.764;26.204;2023-04-01T05:59:59;11.50;;;10.30;;
7583;SDS011;3833;41.764;26.204;2023-04-01T06:02:27;11.80;;;10.60;;
7583;SDS011;3833;41.764;26.204;2023-04-01T06:04:57;12.00;;;11.00;;
7583;SDS011;3833;41.764;26.204;2023-04-01T06:07:29;13.80;;;12.37;;
7583;SDS011;3833;41.764;26.204;2023-04-01T06:09:56;12.77;;;11.63;;
7583;SDS011;3833;41.764;26.204;2023-04-01T06:12:36;17.20;;;15.50;;
7583;SDS011;3833;41.764;26.204;2023-04-01T06:15:13;12.90;;;8.40;;
7583;SDS011;3833;41.764;26.204;2023-04-01T06:18:00;8.70;;;6.97;;
7583;SDS011;3833;41.764;26.204;2023-04-01T06:20:39;16.97;;;15.67;;
7583;SDS011;3833;41.764;26.204;2023-04-01T06:23:20;19.17;;;17.97;;
7583;SDS011;3833;41.764;26.204;2023-04-01T06:26:14;19.27;;;17.67;;
7583;SDS011;3833;41.764;26.204;2023-04-01T06:28:57;17.60;;;12.47;;
7583;SDS011;3833;41.764;26.204;2023-04-01T06:31:53;13.00;;;10.90;;
7583;SDS011;3833;41.764;26.204;2023-04-01T06:34:37;17.93;;;16.73;;
7583;SDS011;3833;41.764;26.204;2023-04-01T06:37:28;20.77;;;19.13;;
7583;SDS011;3833;41.764;26.204;2023-04-01T06:40:18;18.17;;;16.77;;
7583;SDS011;3833;41.764;26.204;2023-04-01T06:43:01;18.60;;;17.43;;
7583;SDS011;3833;41.764;26.204;2023-04-01T06:45:40;9.37;;;7.23;;
7583;SDS011;3833;41.764;26.204;2023-04-01T06:48:13;9.40;;;7.43;;
7583;SDS011;3833;41.764;26.204;2023-04-01T06:50:52;16.73;;;15.47;;
7583;SDS011;3833;41.764;26.204;2023-04-01T06:53:26;15.80;;;14.60;;
7583;SDS011;3833;41.764;26.204;2023-04-01T06:56:02;17.67;;;16.17;;
7583;SDS011;3833;41.764;26.204;2023-04-01T06:58:34;13.83;;;12.77;;
7583;SDS011;3833;41.764;26.204;2023-04-01T07:01:04;8.33;;;7.00;;
7583;SDS011;3833;41.764;26.204;2023-04-01T07:03:36;11.07;;;8.03;;
7583;SDS011;3833;41.764;26.204;2023-04-01T07:06:10;14.77;;;13.47;;
7583;SDS011;3833;41.764;26.204;2023-04-01T07:08:41;22.20;;;20.70;;
7583;SDS011;3833;41.764;26.204;2023-04-01T07:11:12;19.90;;;18.47;;
7583;SDS011;3833;41.764;26.204;2023-04-01T07:13:47;19.17;;;17.77;;
7583;SDS011;3833;41.764;26.204;2023-04-01T07:16:20;7.97;;;6.87;;
7583;SDS011;3833;41.764;26.204;2023-04-01T07:18:54;26.47;;;16.43;;
7583;SDS011;3833;41.764;26.204;2023-04-01T07:21:30;13.37;;;7.93;;
7583;SDS011;3833;41.764;26.204;2023-04-01T07:24:04;18.90;;;17.63;;
7583;SDS011;3833;41.764;26.204;2023-04-01T07:26:36;21.83;;;19.87;;
7583;SDS011;3833;41.764;26.204;2023-04-01T07:29:05;19.67;;;17.93;;
7583;SDS011;3833;41.764;26.204;2023-04-01T07:31:39;16.43;;;14.67;;
7583;SDS011;3833;41.764;26.204;2023-04-01T07:34:26;12.83;;;8.73;;
7583;SDS011;3833;41.764;26.204;2023-04-01T07:36:58;11.00;;;8.27;;
7583;SDS011;3833;41.764;26.204;2023-04-01T07:39:35;12.40;;;8.40;;
7583;SDS011;3833;41.764;26.204;2023-04-01T07:42:12;15.47;;;13.23;;
7583;SDS011;3833;41.764;26.204;2023-04-01T07:44:49;12.57;;;10.50;;
7583;SDS011;3833;41.764;26.204;2023-04-01T07:47:37;15.53;;;10.67;;
7583;SDS011;3833;41.764;26.204;2023-04-01T07:50:18;13.47;;;9.50;;
7583;SDS011;3833;41.764;26.204;2023-04-01T07:52:55;10.00;;;6.77;;
7583;SDS011;3833;41.764;26.204;2023-04-01T07:55:32;10.87;;;6.53;;
7583;SDS011;3833;41.764;26.204;2023-04-01T07:58:04;15.33;;;7.93;;
7583;SDS011;3833;41.764;26.204;2023-04-01T08:00:42;17.53;;;7.03;;
7583;SDS011;3833;41.764;26.204;2023-04-01T08:03:38;22.97;;;21.03;;
7583;SDS011;3833;41.764;26.204;2023-04-01T08:06:19;20.67;;;19.07;;
7583;SDS011;3833;41.764;26.204;2023-04-01T08:08:55;22.47;;;20.90;;
7583;SDS011;3833;41.764;26.204;2023-04-01T08:11:33;19.13;;;17.17;;
7583;SDS011;3833;41.764;26.204;2023-04-01T08:14:08;10.70;;;5.67;;
7583;SDS011;3833;41.764;26.204;2023-04-01T08:16:46;17.40;;;5.57;;
7583;SDS011;3833;41.764;26.204;2023-04-01T08:19:22;12.80;;;5.80;;
7583;SDS011;3833;41.764;26.204;2023-04-01T08:22:03;13.63;;;6.00;;
7583;SDS011;3833;41.764;26.204;2023-04-01T08:24:39;21.07;;;19.67;;
7583;SDS011;3833;41.764;26.204;2023-04-01T08:27:10;17.87;;;16.23;;
7583;SDS011;3833;41.764;26.204;2023-04-01T08:29:42;22.27;;;20.33;;
7583;SDS011;3833;41.764;26.204;2023-04-01T08:32:15;20.53;;;18.97;;
7583;SDS011;3833;41.764;26.204;2023-04-01T08:34:45;13.30;;;5.80;;
7583;SDS011;3833;41.764;26.204;2023-04-01T08:37:19;12.97;;;5.90;;
7583;SDS011;3833;41.764;26.204;2023-04-01T08:39:54;16.33;;;7.27;;
7583;SDS011;3833;41.764;26.204;2023-04-01T08:42:31;15.17;;;5.87;;
7583;SDS011;3833;41.764;26.204;2023-04-01T08:45:26;18.80;;;17.23;;
7583;SDS011;3833;41.764;26.204;2023-04-01T08:48:26;21.07;;;19.20;;
7583;SDS011;3833;41.764;26.204;2023-04-01T08:54:29;15.40;;;13.87;;
7583;SDS011;3833;41.764;26.204;2023-04-01T08:57:08;17.40;;;5.97;;
7583;SDS011;3833;41.764;26.204;2023-04-01T08:59:48;11.40;;;6.03;;
7583;SDS011;3833;41.764;26.204;2023-04-01T09:02:26;11.50;;;5.80;;
7583;SDS011;3833;41.764;26.204;2023-04-01T09:05:25;10.20;;;4.63;;
7583;SDS011;3833;41.764;26.204;2023-04-01T09:08:03;19.90;;;13.80;;
7583;SDS011;3833;41.764;26.204;2023-04-01T09:13:38;20.77;;;19.03;;
7583;SDS011;3833;41.764;26.204;2023-04-01T09:19:34;10.23;;;4.70;;
7583;SDS011;3833;41.764;26.204;2023-04-01T09:22:18;12.70;;;5.00;;
7583;SDS011;3833;41.764;26.204;2023-04-01T09:27:52;13.57;;;7.40;;
7583;SDS011;3833;41.764;26.204;2023-04-01T09:30:36;20.33;;;18.63;;
7583;SDS011;3833;41.764;26.204;2023-04-01T09:36:27;21.83;;;18.93;;
7583;SDS011;3833;41.764;26.204;2023-04-01T09:39:11;20.63;;;14.83;;
7583;SDS011;3833;41.764;26.204;2023-04-01T09:41:50;17.30;;;6.43;;
7583;SDS011;3833;41.764;26.204;2023-04-01T09:44:29;11.43;;;6.17;;
7583;SDS011;3833;41.764;26.204;2023-04-01T09:47:06;14.63;;;7.67;;
7583;SDS011;3833;41.764;26.204;2023-04-01T09:50:03;15.83;;;7.13;;
7583;SDS011;3833;41.764;26.204;2023-04-01T09:52:52;23.17;;;21.43;;
7583;SDS011;3833;41.764;26.204;2023-04-01T09:55:46;21.90;;;11.30;;
7583;SDS011;3833;41.764;26.204;2023-04-01T10:01:42;20.47;;;18.57;;
7583;SDS011;3833;41.764;26.204;2023-04-01T10:04:33;14.63;;;6.60;;
7583;SDS011;3833;41.764;26.204;2023-04-01T10:07:42;15.43;;;6.23;;
7583;SDS011;3833;41.764;26.204;2023-04-01T10:13:42;14.67;;;6.07;;
7583;SDS011;3833;41.764;26.204;2023-04-01T10:16:55;17.80;;;10.17;;
7583;SDS011;3833;41.764;26.204;2023-04-01T10:20:02;16.73;;;9.27;;
7583;SDS011;3833;41.764;26.204;2023-04-01T10:29:02;13.60;;;5.93;;
7583;SDS011;3833;41.764;26.204;2023-04-01T10:31:58;10.97;;;5.90;;
7583;SDS011;3833;41.764;26.204;2023-04-01T10:34:52;17.27;;;6.37;;
7583;SDS011;3833;41.764;26.204;2023-04-01T10:40:36;14.07;;;10.47;;
7583;SDS011;3833;41.764;26.204;2023-04-01T11:31:38;48.00;;;26.30;;
7583;SDS011;3833;41.764;26.204;2023-04-01T11:34:16;96.37;;;51.73;;
7583;SDS011;3833;41.764;26.204;2023-04-01T11:37:24;26.63;;;20.77;;
7583;SDS011;3833;41.764;26.204;2023-04-01T11:40:07;18.27;;;15.90;;
7583;SDS011;3833;41.764;26.204;2023-04-01T11:42:49;18.50;;;16.90;;
7583;SDS011;3833;41.764;26.204;2023-04-01T11:45:29;24.37;;;22.57;;
7583;SDS011;3833;41.764;26.204;2023-04-01T11:51:07;21.47;;;17.90;;
7583;SDS011;3833;41.764;26.204;2023-04-01T11:53:48;17.23;;;15.47;;
7583;SDS011;3833;41.764;26.204;2023-04-01T11:56:28;16.93;;;11.10;;
7583;SDS011;3833;41.764;26.204;2023-04-01T11:59:09;10.73;;;9.20;;
7583;SDS011;3833;41.764;26.204;2023-04-01T12:01:59;9.57;;;4.03;;
7583;SDS011;3833;41.764;26.204;2023-04-01T12:04:45;11.40;;;4.67;;
7583;SDS011;3833;41.764;26.204;2023-04-01T12:07:23;18.17;;;4.73;;
7583;SDS011;3833;41.764;26.204;2023-04-01T12:10:05;14.27;;;12.87;;
7583;SDS011;3833;41.764;26.204;2023-04-01T12:12:44;13.30;;;6.27;;
7583;SDS011;3833;41.764;26.204;2023-04-01T12:15:20;15.33;;;11.13;;
7583;SDS011;3833;41.764;26.204;2023-04-01T12:17:57;17.13;;;11.10;;
7583;SDS011;3833;41.764;26.204;2023-04-01T12:20:37;12.73;;;5.77;;
7583;SDS011;3833;41.764;26.204;2023-04-01T12:23:18;16.77;;;6.10;;
7583;SDS011;3833;41.764;26.204;2023-04-01T12:26:21;14.20;;;5.60;;
7583;SDS011;3833;41.764;26.204;2023-04-01T12:29:07;13.87;;;6.03;;
7583;SDS011;3833;41.764;26.204;2023-04-01T12:31:47;19.20;;;17.27;;
7583;SDS011;3833;41.764;26.204;2023-04-01T12:37:26;20.83;;;18.90;;
7583;SDS011;3833;41.764;26.204;2023-04-01T12:40:05;26.90;;;24.60;;
7583;SDS011;3833;41.764;26.204;2023-04-01T12:42:58;15.30;;;5.07;;
7583;SDS011;3833;41.764;26.204;2023-04-01T12:45:34;14.73;;;5.40;;
7583;SDS011;3833;41.764;26.204;2023-04-01T12:51:19;20.80;;;18.73;;
7583;SDS011;3833;41.764;26.204;2023-04-01T12:54:01;22.77;;;20.97;;
7583;SDS011;3833;41.764;26.204;2023-04-01T12:56:47;25.90;;;23.80;;
7583;SDS011;3833;41.764;26.204;2023-04-01T13:02:20;10.80;;;5.40;;
7583;SDS011;3833;41.764;26.204;2023-04-01T13:08:18;11.90;;;6.07;;
7583;SDS011;3833;41.764;26.204;2023-04-01T13:11:09;10.07;;;5.17;;
7583;SDS011;3833;41.764;26.204;2023-04-01T13:13:44;10.57;;;5.53;;
7583;SDS011;3833;41.764;26.204;2023-04-01T13:16:24;11.00;;;5.17;;
7583;SDS011;3833;41.764;26.204;2023-04-01T13:18:57;12.90;;;10.90;;
7583;SDS011;3833;41.764;26.204;2023-04-01T13:21:32;15.47;;;13.03;;
7583;SDS011;3833;41.764;26.204;2023-04-01T13:24:09;16.53;;;14.20;;
7583;SDS011;3833;41.764;26.204;2023-04-01T13:26:53;22.23;;;12.97;;
7583;SDS011;3833;41.764;26.204;2023-04-01T13:29:27;10.53;;;5.23;;
7583;SDS011;3833;41.764;26.204;2023-04-01T13:32:05;9.87;;;5.53;;
7583;SDS011;3833;41.764;26.204;2023-04-01T13:34:48;12.73;;;5.10;;
7583;SDS011;3833;41.764;26.204;2023-04-01T13:37:32;17.93;;;6.30;;
7583;SDS011;3833;41.764;26.204;2023-04-01T13:40:20;15.47;;;5.57;;
7583;SDS011;3833;41.764;26.204;2023-04-01T13:42:53;9.17;;;5.20;;
7583;SDS011;3833;41.764;26.204;2023-04-01T13:45:29;16.20;;;6.13;;
7583;SDS011;3833;41.764;26.204;2023-04-01T13:48:14;13.93;;;6.20;;
7583;SDS011;3833;41.764;26.204;2023-04-01T13:51:01;18.60;;;6.77;;
7583;SDS011;3833;41.764;26.204;2023-04-01T13:53:43;18.33;;;6.23;;
7583;SDS011;3833;41.764;26.204;2023-04-01T13:56:32;14.23;;;6.80;;
7583;SDS011;3833;41.764;26.204;2023-04-01T13:59:10;10.70;;;6.33;;
7583;SDS011;3833;41.764;26.204;2023-04-01T14:01:59;17.73;;;7.87;;
7583;SDS011;3833;41.764;26.204;2023-04-01T14:04:44;11.10;;;6.40;;
7583;SDS011;3833;41.764;26.204;2023-04-01T14:10:21;14.23;;;6.43;;
7583;SDS011;3833;41.764;26.204;2023-04-01T14:13:12;14.80;;;5.40;;
7583;SDS011;3833;41.764;26.204;2023-04-01T14:19:34;14.57;;;4.30;;
7583;SDS011;3833;41.764;26.204;2023-04-01T14:22:22;12.60;;;4.67;;
7583;SDS011;3833;41.764;26.204;2023-04-01T14:25:13;11.80;;;5.03;;
7583;SDS011;3833;41.764;26.204;2023-04-01T14:28:03;11.00;;;5.23;;
7583;SDS011;3833;41.764;26.204;2023-04-01T14:31:08;11.93;;;5.47;;
7583;SDS011;3833;41.764;26.204;2023-04-01T14:34:00;15.80;;;5.33;;
7583;SDS011;3833;41.764;26.204;2023-04-01T14:36:50;15.10;;;4.83;;
7583;SDS011;3833;41.764;26.204;2023-04-01T14:42:58;13.37;;;5.60;;
7583;SDS011;3833;41.764;26.204;2023-04-01T14:45:46;10.97;;;5.90;;
7583;SDS011;3833;41.764;26.204;2023-04-01T14:48:29;11.00;;;4.50;;
7583;SDS011;3833;41.764;26.204;2023-04-01T14:51:10;11.33;;;4.10;;
7583;SDS011;3833;41.764;26.204;2023-04-01T14:54:00;10.10;;;4.83;;
7583;SDS011;3833;41.764;26.204;2023-04-01T14:56:43;12.50;;;5.60;;
7583;SDS011;3833;41.764;26.204;2023-04-01T14:59:14;11.17;;;5.07;;
7583;SDS011;3833;41.764;26.204;2023-04-01T15:02:03;13.97;;;7.53;;
7583;SDS011;3833;41.764;26.204;2023-04-01T15:04:57;15.87;;;14.30;;
7583;SDS011;3833;41.764;26.204;2023-04-01T15:10:55;13.00;;;5.37;;
7583;SDS011;3833;41.764;26.204;2023-04-01T15:14:17;10.20;;;5.80;;
7583;SDS011;3833;41.764;26.204;2023-04-01T15:17:27;10.07;;;5.13;;
7583;SDS011;3833;41.764;26.204;2023-04-01T15:20:35;9.67;;;5.77;;
7583;SDS011;3833;41.764;26.204;2023-04-01T15:24:06;10.27;;;4.67;;
7583;SDS011;3833;41.764;26.204;2023-04-01T15:26:58;12.43;;;5.80;;
7583;SDS011;3833;41.764;26.204;2023-04-01T15:29:40;8.97;;;5.47;;
7583;SDS011;3833;41.764;26.204;2023-04-01T15:32:23;10.67;;;5.30;;
7583;SDS011;3833;41.764;26.204;2023-04-01T15:35:17;13.77;;;6.70;;
7583;SDS011;3833;41.764;26.204;2023-04-01T15:37:58;14.27;;;6.43;;
7583;SDS011;3833;41.764;26.204;2023-04-01T15:40:51;12.30;;;6.40;;
7583;SDS011;3833;41.764;26.204;2023-04-01T15:43:31;10.97;;;5.73;;
7583;SDS011;3833;41.764;26.204;2023-04-01T15:52:15;8.13;;;5.57;;
7583;SDS011;3833;41.764;26.204;2023-04-01T15:54:58;10.73;;;6.10;;
7583;SDS011;3833;41.764;26.204;2023-04-01T15:57:47;10.93;;;5.70;;
7583;SDS011;3833;41.764;26.204;2023-04-01T16:00:27;6.93;;;5.83;;
7583;SDS011;3833;41.764;26.204;2023-04-01T16:03:46;7.97;;;7.10;;
7583;SDS011;3833;41.764;26.204;2023-04-01T16:10:21;9.93;;;8.90;;
7583;SDS011;3833;41.764;26.204;2023-04-01T16:13:03;10.77;;;7.97;;
7583;SDS011;3833;41.764;26.204;2023-04-01T16:15:43;8.47;;;6.07;;
7583;SDS011;3833;41.764;26.204;2023-04-01T16:18:21;6.63;;;5.87;;
7583;SDS011;3833;41.764;26.204;2023-04-01T16:21:33;11.13;;;6.30;;
7583;SDS011;3833;41.764;26.204;2023-04-01T16:24:17;8.67;;;5.80;;
7583;SDS011;3833;41.764;26.204;2023-04-01T16:26:53;8.07;;;5.20;;
7583;SDS011;3833;41.764;26.204;2023-04-01T16:29:28;9.37;;;5.73;;
7583;SDS011;3833;41.764;26.204;2023-04-01T16:35:21;9.53;;;8.60;;
7583;SDS011;3833;41.764;26.204;2023-04-01T16:37:59;10.33;;;7.73;;
7583;SDS011;3833;41.764;26.204;2023-04-01T16:40:34;10.17;;;6.73;;
7583;SDS011;3833;41.764;26.204;2023-04-01T16:46:31;11.90;;;7.47;;
7583;SDS011;3833;41.764;26.204;2023-04-01T16:52:13;15.40;;;6.03;;
7583;SDS011;3833;41.764;26.204;2023-04-01T16:55:11;16.53;;;7.43;;
7583;SDS011;3833;41.764;26.204;2023-04-01T16:58:07;20.13;;;9.80;;
7583;SDS011;3833;41.764;26.204;2023-04-01T17:00:37;19.33;;;8.43;;
7583;SDS011;3833;41.764;26.204;2023-04-01T17:03:11;15.40;;;7.03;;
7583;SDS011;3833;41.764;26.204;2023-04-01T17:05:55;16.00;;;5.80;;
7583;SDS011;3833;41.764;26.204;2023-04-01T17:08:39;21.13;;;6.97;;
7583;SDS011;3833;41.764;26.204;2023-04-01T17:11:21;17.07;;;6.47;;
7583;SDS011;3833;41.764;26.204;2023-04-01T17:13:56;15.40;;;6.97;;
7583;SDS011;3833;41.764;26.204;2023-04-01T17:19:42;13.97;;;6.70;;
7583;SDS011;3833;41.764;26.204;2023-04-01T17:22:25;15.03;;;5.47;;
7583;SDS011;3833;41.764;26.204;2023-04-01T17:25:01;15.83;;;6.27;;
7583;SDS011;3833;41.764;26.204;2023-04-01T17:27:43;14.27;;;6.07;;
7583;SDS011;3833;41.764;26.204;2023-04-01T17:30:22;17.83;;;5.80;;
7583;SDS011;3833;41.764;26.204;2023-04-01T17:35:57;12.93;;;5.17;;
7583;SDS011;3833;41.764;26.204;2023-04-01T17:38:47;11.57;;;5.10;;
7583;SDS011;3833;41.764;26.204;2023-04-01T17:41:36;17.03;;;5.50;;
7583;SDS011;3833;41.764;26.204;2023-04-01T17:44:16;12.07;;;5.00;;
7583;SDS011;3833;41.764;26.204;2023-04-01T17:49:45;11.23;;;4.13;;
7583;SDS011;3833;41.764;26.204;2023-04-01T17:52:19;8.67;;;4.37;;
7583;SDS011;3833;41.764;26.204;2023-04-01T17:54:59;8.43;;;3.63;;
7583;SDS011;3833;41.764;26.204;2023-04-01T17:57:43;9.27;;;4.37;;
7583;SDS011;3833;41.764;26.204;2023-04-01T18:00:17;13.50;;;4.20;;
7583;SDS011;3833;41.764;26.204;2023-04-01T18:02:52;9.03;;;3.87;;
7583;SDS011;3833;41.764;26.204;2023-04-01T18:05:29;8.50;;;4.40;;
7583;SDS011;3833;41.764;26.204;2023-04-01T18:10:55;8.27;;;4.90;;
7583;SDS011;3833;41.764;26.204;2023-04-01T18:16:40;10.40;;;6.10;;
7583;SDS011;3833;41.764;26.204;2023-04-01T18:19:16;13.57;;;7.07;;
7583;SDS011;3833;41.764;26.204;2023-04-01T18:21:55;10.87;;;5.87;;